Vidalia, GA (30475)

9:40 PM EDT on May 04, 2015 (GMT -0400)
Oxley Dr., VHS | | Change Station
CLOSE
Current Station
Personal Weather Station
Location: Vidalia, GA
Elevation: 279 ft
Nearby Weather Stations
Active Advisory: Flood Warning

Elev 279 ft 32.23 °N, 82.44 °W | Updated 17 seconds ago

Clear
Clear
67.3 °F
Feels Like 67.3 °F
N
0.0
Wind Variable Wind from NW
Gusts 0.0 mph

Today
High -- | Low -- °F
--% Chance of Precip.
Yesterday
High -- | Low -- °F
Precip. -- in
6:40 AM 8:12 PM
Full, 99% visible
Pressure 30.29 in
Visibility 10.0 miles
Clouds Clear
Dew Point 58 °F
Humidity 73%
Rainfall 0.00 in
Snow Depth Not available.
UV 0.0 out of 12
Pollen 6.70 out of 12
Air Quality Not available.
Flu Activity Sporadic
METAR KVDI 050115Z AUTO 13003KT 10SM CLR 20/14 A3029 RMK AO2

More Conditions Fewer Conditions

Pressure 30.29 in
Visibility 10.0 miles
Clouds Clear
Dew Point 58 °F
Humidity 73%
Rainfall 0.00 in
Snow Depth Not available.
UV 0.0 out of 12
Pollen 6.70 out of 12
Air Quality Not available.
Flu Activity Sporadic
METAR KVDI 050115Z AUTO 13003KT 10SM CLR 20/14 A3029 RMK AO2

More Conditions Fewer Conditions

Nepal has a long way to go to dig out and rebuild from a devastating earthquake. We have teamed up with several charities and organizations to make contributing to the relief effort as easy as possible.
How you can help: Portlight Strategies | Red Cross

10-Day Weather Forecast

Almanac

Astronomy

May. 04, 2015 Rise Set
Actual Time
Civil Twilight
Nautical Twilight
Astronomical Twilight
Moon
Length of Visible Light
Length of Day
Tomorrow will be .
, % of the Moon is Illuminated

Today's Extremes

State Highs State Lows

Community

WunderPhotos

Upload Photos

1,818,779 photos uploaded!

WunderBlogs® & News

Nearby

Air Quality

  Air Quality AQ Index Pollutant
Not available.

Snow Depth

Station Depth Elevation

Earthquake Activity

City Distance Mag. Time & Date
Minimum magnitude displayed is 2.5.

Coastal Water Temperatures

Place Temperature

Stations

Nearby Weather Stations

Station Location Temp. Windchill Dew Point Humidity Wind Precip. Elev Updated Type
                   
Flood Warning
Statement as of 9:29 PM EDT on May 04, 2015

... Flood Warning extended until Wednesday evening... the Flood Warning
continues for
the Altamaha river at Baxley.
* Until Wednesday evening... or until the warning is cancelled.
* At 8:45 PM Monday the stage was 75.9 feet.
* Minor flooding is occurring and minor flooding is forecast.
* Flood stage is 74.5 feet.
* Forecast... the river will continue to fall to below flood stage by
Wednesday early afternoon.
* Impact... at 74.5 feet... minor flooding of Timber and agricultural
land can be expected.





               Fld observed 7am EST / 8am EDT forecast
location stg stg day time Tue Wed Thu Fri Sat

Altamaha
Baxley 74 75.9 Mon 09 PM 75.4 74.7 74.0 73.3 72.5



Lat... Lon 3194 8243 3188 8222 3176 8199 3183 8195 3193 8213 3200 8243